Terminal Aerodrome Forecast
Issued by NWS

Home | Current Version | Previous Version | Text Only | Print | Product List | Glossary On
Versions: 1 2 3 4 5 6 7 8 9 10 11 12 13 14 15 16 17 18 19
000
FTUS42 KILM 180521
TAFCRE
TAF
KCRE 180521Z 1806/1906 23006KT P6SM SCT050
     FM181700 21008KT P6SM VCTS SCT040CB
     FM182300 20013KT P6SM SCT040=

USA.gov is the U.S. government's official web portal to all federal, state and local government web resources and services.